createdAt,value
2018-08-06T00:00:01.471Z,17.91
2018-08-06T00:02:59.519Z,17.88
2018-08-06T00:05:57.350Z,17.89
2018-08-06T00:08:55.728Z,17.89
2018-08-06T00:11:53.898Z,17.89
2018-08-06T00:14:52.076Z,17.87
2018-08-06T00:17:51.215Z,17.93
2018-08-06T00:20:49.177Z,17.99
2018-08-06T00:23:47.226Z,18.05
2018-08-06T00:26:46.443Z,18.11
2018-08-06T00:29:44.926Z,18.14
2018-08-06T00:32:44.067Z,18.16
2018-08-06T00:35:42.009Z,18.16
2018-08-06T00:38:40.123Z,18.08
2018-08-06T00:41:38.075Z,17.95
2018-08-06T00:44:36.079Z,17.84
2018-08-06T00:47:34.432Z,17.68
2018-08-06T00:50:33.695Z,17.60
2018-08-06T00:53:32.235Z,17.54
2018-08-06T00:56:31.247Z,17.45
2018-08-06T00:59:29.896Z,17.37
2018-08-06T01:02:27.857Z,17.30
2018-08-06T01:05:25.952Z,17.25
2018-08-06T01:08:24.494Z,17.19
2018-08-06T01:11:22.471Z,17.13
2018-08-06T01:14:21.539Z,17.06
2018-08-06T01:17:19.900Z,17.00
2018-08-06T01:20:22.671Z,16.93
2018-08-06T01:23:21.691Z,16.86
2018-08-06T01:26:19.789Z,16.85
2018-08-06T01:29:17.974Z,16.85
2018-08-06T01:32:15.672Z,16.89
2018-08-06T01:35:14.945Z,16.88
2018-08-06T01:38:12.910Z,16.87
2018-08-06T01:41:10.971Z,16.86
2018-08-06T01:44:10.233Z,16.81
2018-08-06T01:47:08.463Z,16.78
2018-08-06T01:50:06.530Z,16.77
2018-08-06T01:53:04.749Z,16.80
2018-08-06T01:56:02.878Z,16.77
2018-08-06T01:59:00.970Z,16.79
2018-08-06T02:01:58.978Z,16.79
2018-08-06T02:04:57.143Z,16.81
2018-08-06T02:07:54.821Z,16.81
2018-08-06T02:10:52.895Z,16.81
2018-08-06T02:13:50.833Z,16.79
2018-08-06T02:16:49.126Z,16.74
2018-08-06T02:19:48.495Z,16.69
2018-08-06T02:22:46.977Z,16.65
2018-08-06T02:25:45.531Z,16.62
2018-08-06T02:28:43.827Z,16.57
2018-08-06T02:31:41.665Z,16.52
2018-08-06T02:34:42.817Z,16.47
2018-08-06T02:37:40.922Z,16.42
2018-08-06T02:40:40.005Z,16.37
2018-08-06T02:43:37.839Z,16.32
2018-08-06T02:46:35.948Z,16.29
2018-08-06T02:49:33.983Z,16.26
2018-08-06T02:52:32.212Z,16.22
2018-08-06T02:55:31.267Z,16.15
2018-08-06T02:58:30.229Z,15.94
2018-08-06T03:01:28.679Z,15.79
2018-08-06T03:04:26.720Z,15.69
2018-08-06T03:07:24.816Z,15.56
2018-08-06T03:10:22.810Z,15.45
2018-08-06T03:13:21.250Z,15.40
2018-08-06T03:16:19.402Z,15.33
2018-08-06T03:19:17.258Z,15.35
2018-08-06T03:22:15.473Z,15.30
2018-08-06T03:25:13.730Z,15.32
2018-08-06T03:28:12.324Z,15.39
2018-08-06T03:31:10.897Z,15.49
2018-08-06T03:34:09.344Z,15.47
2018-08-06T03:37:07.667Z,15.33
2018-08-06T03:40:06.932Z,15.22
2018-08-06T03:43:04.725Z,15.15
2018-08-06T03:46:02.822Z,15.13
2018-08-06T03:49:00.927Z,15.09
2018-08-06T03:51:58.849Z,15.03
2018-08-06T03:54:58.010Z,15.00
2018-08-06T03:57:56.186Z,15.00
2018-08-06T04:00:54.095Z,14.99
2018-08-06T04:03:52.050Z,15.00
2018-08-06T04:06:50.226Z,14.99
2018-08-06T04:09:48.322Z,15.02
2018-08-06T04:12:46.252Z,15.05
2018-08-06T04:15:44.518Z,15.07
2018-08-06T04:18:42.760Z,15.11
2018-08-06T04:21:41.792Z,15.16
2018-08-06T04:24:42.941Z,15.20
2018-08-06T04:27:41.178Z,15.25
2018-08-06T04:30:40.849Z,15.28
2018-08-06T04:33:39.035Z,15.30
2018-08-06T04:36:37.078Z,15.31
2018-08-06T04:39:35.323Z,15.40
2018-08-06T04:42:33.486Z,15.50
2018-08-06T04:45:31.595Z,15.63
2018-08-06T04:48:29.529Z,15.75
2018-08-06T04:51:28.684Z,15.83
2018-08-06T04:54:27.156Z,15.95
2018-08-06T04:57:25.533Z,16.08
2018-08-06T05:00:24.615Z,16.19
2018-08-06T05:03:22.842Z,16.28
2018-08-06T05:06:20.845Z,16.41
2018-08-06T05:09:22.324Z,16.53
2018-08-06T05:12:21.515Z,16.66
2018-08-06T05:15:20.562Z,16.78
2018-08-06T05:18:18.789Z,16.87
2018-08-06T05:21:17.226Z,16.96
2018-08-06T05:24:16.670Z,17.09
2018-08-06T05:27:14.850Z,17.24
2018-08-06T05:30:12.803Z,17.41
2018-08-06T05:33:10.959Z,17.54
2018-08-06T05:36:08.750Z,17.68
2018-08-06T05:39:07.966Z,17.81
2018-08-06T05:42:05.772Z,17.93
2018-08-06T05:45:04.030Z,18.15
2018-08-06T05:48:02.171Z,18.31
2018-08-06T05:51:02.199Z,18.48
2018-08-06T05:54:00.524Z,18.62
2018-08-06T05:56:59.023Z,18.81
2018-08-06T05:59:57.081Z,18.95
2018-08-06T06:02:56.176Z,19.10
2018-08-06T06:05:54.342Z,19.23
2018-08-06T06:08:53.950Z,19.33
2018-08-06T06:11:52.496Z,19.38
2018-08-06T06:14:50.974Z,19.46
2018-08-06T06:17:49.795Z,19.60
2018-08-06T06:20:48.121Z,19.75
2018-08-06T06:23:46.474Z,19.91
2018-08-06T06:26:44.765Z,20.15
2018-08-06T06:29:42.910Z,20.32
2018-08-06T06:32:41.282Z,20.41
2018-08-06T06:35:39.559Z,20.51
2018-08-06T06:38:38.093Z,20.59
2018-08-06T06:41:35.934Z,20.65
2018-08-06T06:44:33.954Z,20.72
2018-08-06T06:47:31.953Z,20.87
2018-08-06T06:50:30.218Z,20.91
2018-08-06T06:53:28.218Z,20.97
2018-08-06T06:56:26.440Z,21.04
2018-08-06T06:59:24.526Z,21.09
2018-08-06T07:02:22.717Z,21.08
2018-08-06T07:05:21.949Z,21.19
2018-08-06T07:08:20.419Z,21.27
2018-08-06T07:11:18.069Z,21.22
2018-08-06T07:14:16.569Z,21.22
2018-08-06T07:17:14.803Z,21.30
2018-08-06T07:20:13.163Z,21.30
2018-08-06T07:23:11.117Z,21.39
2018-08-06T07:26:09.489Z,21.39
2018-08-06T07:29:07.376Z,21.48
2018-08-06T07:32:05.921Z,21.55
2018-08-06T07:35:03.688Z,21.65
2018-08-06T07:46:12.687Z,21.87
2018-08-06T07:49:10.938Z,21.92
2018-08-06T07:52:09.171Z,21.89
2018-08-06T07:55:07.275Z,21.86
2018-08-06T07:58:05.696Z,21.94
2018-08-06T08:01:03.667Z,22.16
2018-08-06T08:04:02.295Z,22.41
2018-08-06T08:07:00.452Z,22.43
2018-08-06T08:09:59.368Z,22.39
2018-08-06T08:12:57.451Z,22.53
2018-08-06T08:15:55.473Z,22.67
2018-08-06T08:18:53.686Z,22.68
2018-08-06T08:21:51.855Z,22.85
2018-08-06T08:24:50.020Z,22.97
2018-08-06T08:27:49.223Z,22.94
2018-08-06T08:30:48.331Z,22.89
2018-08-06T08:33:46.203Z,23.05
2018-08-06T08:36:44.161Z,23.01
2018-08-06T08:39:42.231Z,22.96
2018-08-06T08:42:40.231Z,23.18
2018-08-06T08:45:39.574Z,23.28
2018-08-06T08:48:37.473Z,23.37
2018-08-06T08:51:35.965Z,23.44
2018-08-06T08:54:34.797Z,23.50
2018-08-06T08:57:34.485Z,23.62
2018-08-06T09:00:35.335Z,23.75
2018-08-06T09:03:33.662Z,23.94
2018-08-06T09:06:31.583Z,24.11
2018-08-06T09:09:31.071Z,24.15
2018-08-06T09:12:29.303Z,24.19
2018-08-06T09:15:35.576Z,24.18
2018-08-06T09:18:34.996Z,24.22
2018-08-06T09:21:33.499Z,24.34
2018-08-06T09:24:31.859Z,24.22
2018-08-06T09:27:30.429Z,24.09
2018-08-06T09:30:32.004Z,24.11
2018-08-06T09:33:31.355Z,24.12
2018-08-06T09:36:29.264Z,24.11
2018-08-06T09:39:29.226Z,24.06
2018-08-06T09:42:27.491Z,24.18
2018-08-06T09:45:27.079Z,24.38
2018-08-06T09:48:25.871Z,24.46
2018-08-06T09:51:24.240Z,24.50
2018-08-06T09:54:23.293Z,24.56
2018-08-06T09:57:21.667Z,24.55
2018-08-06T10:00:27.273Z,24.62
2018-08-06T10:03:25.575Z,25.01
2018-08-06T10:06:23.837Z,25.08
2018-08-06T10:09:23.432Z,24.97
2018-08-06T10:12:21.651Z,24.91
2018-08-06T10:15:21.088Z,24.78
2018-08-06T10:18:19.057Z,24.66
2018-08-06T10:21:17.256Z,24.94
2018-08-06T10:24:15.395Z,25.32
2018-08-06T10:27:14.692Z,25.49
2018-08-06T10:30:13.397Z,25.23
2018-08-06T10:33:11.444Z,24.90
2018-08-06T10:36:09.878Z,24.94
2018-08-06T10:39:09.068Z,25.32
2018-08-06T10:42:08.572Z,25.51
2018-08-06T10:45:07.028Z,25.54
2018-08-06T10:48:06.108Z,25.49
2018-08-06T10:51:05.370Z,25.34
2018-08-06T10:54:03.396Z,25.10
2018-08-06T10:57:01.552Z,24.89
2018-08-06T10:59:59.600Z,24.80
2018-08-06T11:02:59.070Z,25.12
2018-08-06T11:05:56.812Z,25.78
2018-08-06T11:08:54.829Z,26.43
2018-08-06T11:11:53.115Z,26.83
2018-08-06T11:14:51.408Z,27.10
2018-08-06T11:17:50.599Z,26.69
2018-08-06T11:20:49.164Z,26.88
2018-08-06T11:23:46.991Z,27.60
2018-08-06T11:26:45.015Z,28.48
2018-08-06T11:29:43.147Z,28.31
2018-08-06T11:32:41.563Z,28.06
2018-08-06T11:35:39.591Z,27.06
2018-08-06T11:38:38.017Z,26.70
2018-08-06T11:41:36.103Z,26.50
2018-08-06T11:44:34.764Z,26.03
2018-08-06T11:47:33.044Z,26.56
2018-08-06T11:50:32.319Z,27.80
2018-08-06T11:53:30.706Z,29.21
2018-08-06T11:56:29.056Z,30.01
2018-08-06T11:59:26.911Z,30.14
2018-08-06T12:02:25.349Z,29.13
2018-08-06T12:05:24.864Z,29.04
2018-08-06T12:08:22.906Z,30.23
2018-08-06T12:11:21.102Z,30.70
2018-08-06T12:14:20.257Z,30.82
2018-08-06T12:17:19.071Z,32.22
2018-08-06T12:20:23.434Z,33.29
2018-08-06T12:23:21.644Z,33.69
2018-08-06T12:26:19.748Z,32.73
2018-08-06T12:29:17.780Z,32.01
2018-08-06T12:32:16.101Z,31.33
2018-08-06T12:35:16.032Z,31.18
2018-08-06T12:38:14.414Z,31.47
2018-08-06T12:41:12.253Z,31.73
2018-08-06T12:44:10.687Z,32.12
2018-08-06T12:47:08.432Z,32.57
2018-08-06T12:50:06.833Z,33.51
2018-08-06T12:53:05.155Z,34.25
2018-08-06T12:56:04.450Z,33.71
2018-08-06T12:59:02.268Z,33.28
2018-08-06T13:02:00.605Z,31.79
2018-08-06T13:04:58.729Z,32.33
2018-08-06T13:07:56.903Z,32.45
2018-08-06T13:10:58.475Z,32.48
2018-08-06T13:13:57.131Z,31.93
2018-08-06T13:16:55.100Z,32.45
2018-08-06T13:19:53.734Z,32.08
2018-08-06T13:22:51.830Z,31.32
2018-08-06T13:25:50.077Z,30.76
2018-08-06T13:28:47.775Z,31.17
2018-08-06T13:31:45.890Z,32.46
2018-08-06T13:34:44.937Z,32.56
2018-08-06T13:37:43.446Z,33.23
2018-08-06T13:40:41.972Z,31.74
2018-08-06T13:43:40.120Z,29.96
2018-08-06T13:46:38.183Z,29.57
2018-08-06T13:49:37.548Z,30.47
2018-08-06T13:52:36.452Z,31.21
2018-08-06T13:55:35.170Z,31.44
2018-08-06T13:58:33.264Z,31.91
2018-08-06T14:01:31.485Z,31.65
2018-08-06T14:04:29.362Z,32.33
2018-08-06T14:07:27.814Z,32.60
2018-08-06T14:10:26.944Z,32.49
2018-08-06T14:13:25.198Z,33.17
2018-08-06T14:16:24.413Z,33.24
2018-08-06T14:19:22.585Z,33.98
2018-08-06T14:22:20.717Z,33.83
2018-08-06T14:25:20.918Z,33.50
2018-08-06T14:28:18.981Z,33.52
2018-08-06T14:31:17.113Z,33.78
2018-08-06T14:34:15.814Z,33.65
2018-08-06T14:37:14.151Z,33.44
2018-08-06T14:40:12.498Z,33.10
2018-08-06T14:43:10.789Z,32.90
2018-08-06T14:46:09.802Z,33.15
2018-08-06T14:49:08.106Z,33.77
2018-08-06T14:52:06.038Z,34.43
2018-08-06T14:55:04.363Z,35.04
2018-08-06T14:58:03.159Z,35.60
2018-08-06T15:01:01.555Z,36.09
2018-08-06T15:03:59.800Z,35.54
2018-08-06T15:06:59.561Z,34.93
2018-08-06T15:09:58.383Z,34.54
2018-08-06T15:12:56.819Z,34.58
2018-08-06T15:15:55.306Z,34.18
2018-08-06T15:18:53.490Z,34.16
2018-08-06T15:21:52.258Z,34.19
2018-08-06T15:24:50.994Z,33.67
2018-08-06T15:27:50.489Z,34.04
2018-08-06T15:30:48.860Z,34.88
2018-08-06T15:33:46.937Z,34.67
2018-08-06T15:36:45.077Z,34.51
2018-08-06T15:39:43.169Z,35.28
2018-08-06T15:42:44.692Z,35.11
2018-08-06T15:45:42.379Z,34.84
2018-08-06T15:48:40.759Z,34.67
2018-08-06T15:51:38.959Z,34.71
2018-08-06T15:54:38.067Z,34.47
2018-08-06T15:57:36.746Z,34.59
2018-08-06T16:00:36.044Z,34.04
2018-08-06T16:03:34.273Z,33.65
2018-08-06T16:06:32.726Z,33.30
2018-08-06T16:09:31.706Z,33.46
2018-08-06T16:12:30.697Z,34.22
2018-08-06T16:15:30.903Z,34.24
2018-08-06T16:18:29.423Z,34.42
2018-08-06T16:21:27.556Z,34.86
2018-08-06T16:24:26.013Z,35.69
2018-08-06T16:27:24.084Z,35.56
2018-08-06T16:30:29.417Z,35.44
2018-08-06T16:33:27.266Z,35.69
2018-08-06T16:36:25.343Z,35.60
2018-08-06T16:39:25.632Z,35.05
2018-08-06T16:42:23.675Z,34.86
2018-08-06T16:45:21.662Z,34.91
2018-08-06T16:48:19.903Z,34.61
2018-08-06T16:51:17.988Z,34.12
2018-08-06T16:54:17.233Z,33.95
2018-08-06T16:57:15.060Z,33.76
2018-08-06T17:00:14.298Z,33.27
2018-08-06T17:03:13.190Z,32.60
2018-08-06T17:06:11.649Z,32.27
2018-08-06T17:09:09.619Z,31.90
2018-08-06T17:12:08.269Z,31.79
2018-08-06T17:15:06.068Z,31.73
2018-08-06T17:18:05.091Z,31.20
2018-08-06T17:21:04.127Z,30.98
2018-08-06T17:24:02.651Z,30.71
2018-08-06T17:27:01.165Z,30.54
2018-08-06T17:29:59.398Z,30.25
2018-08-06T17:32:57.343Z,30.28
2018-08-06T17:35:55.655Z,30.16
2018-08-06T17:38:53.481Z,29.94
2018-08-06T17:41:52.911Z,29.80
2018-08-06T17:44:50.945Z,29.65
2018-08-06T17:47:48.951Z,29.58
2018-08-06T17:50:47.832Z,29.54
2018-08-06T17:53:46.116Z,29.59
2018-08-06T17:56:44.054Z,29.72
2018-08-06T17:59:42.673Z,29.81
2018-08-06T18:02:42.907Z,29.62
2018-08-06T18:05:41.340Z,29.33
2018-08-06T18:08:39.332Z,28.82
2018-08-06T18:11:37.357Z,28.33
2018-08-06T18:14:35.784Z,27.88
2018-08-06T18:17:34.400Z,27.39
2018-08-06T18:20:33.988Z,27.00
2018-08-06T18:23:32.868Z,26.61
2018-08-06T18:26:31.772Z,26.25
2018-08-06T18:29:31.144Z,25.95
2018-08-06T18:32:30.012Z,25.69
2018-08-06T18:35:29.313Z,25.47
2018-08-06T18:38:27.294Z,25.23
2018-08-06T18:41:25.939Z,24.96
2018-08-06T18:44:24.103Z,24.81
2018-08-06T18:47:22.459Z,24.67
2018-08-06T18:50:22.975Z,24.42
2018-08-06T18:53:21.247Z,24.22
2018-08-06T18:56:19.263Z,23.98
2018-08-06T18:59:18.891Z,23.63
2018-08-06T19:02:16.990Z,23.43
2018-08-06T19:05:16.760Z,22.95
2018-08-06T19:08:16.251Z,22.73
2018-08-06T19:11:15.121Z,22.55
2018-08-06T19:14:20.274Z,22.29
2018-08-06T19:17:19.031Z,22.15
2018-08-06T19:20:17.414Z,21.94
2018-08-06T19:23:16.102Z,21.80
2018-08-06T19:26:15.695Z,21.69
2018-08-06T19:29:14.445Z,21.54
2018-08-06T19:32:12.410Z,21.34
2018-08-06T19:35:10.901Z,20.96
2018-08-06T19:38:09.227Z,20.72
2018-08-06T19:41:07.900Z,20.49
2018-08-06T19:44:06.635Z,20.37
2018-08-06T19:47:04.891Z,20.30
2018-08-06T19:51:08.575Z,20.28
2018-08-06T19:54:07.296Z,20.20
2018-08-06T19:57:05.354Z,20.08
2018-08-06T20:00:03.882Z,19.92
2018-08-06T20:03:01.746Z,19.75
2018-08-06T20:06:00.115Z,19.58
2018-08-06T20:08:58.180Z,19.47
2018-08-06T20:11:56.419Z,19.26
2018-08-06T20:14:54.564Z,19.13
2018-08-06T20:17:53.023Z,19.10
2018-08-06T20:20:51.516Z,18.90
2018-08-06T20:23:49.813Z,18.77
2018-08-06T20:26:48.214Z,18.78
2018-08-06T20:29:46.956Z,18.70
2018-08-06T20:32:46.070Z,18.65
2018-08-06T20:35:44.706Z,18.62
2018-08-06T20:38:42.633Z,18.64
2018-08-06T20:41:41.150Z,18.54
2018-08-06T20:44:39.631Z,18.40
2018-08-06T20:47:38.011Z,18.23
2018-08-06T20:50:38.408Z,18.25
2018-08-06T20:53:37.725Z,18.31
2018-08-06T20:56:36.878Z,18.25
2018-08-06T20:59:35.379Z,18.12
2018-08-06T21:02:36.660Z,17.97
2018-08-06T21:05:34.570Z,17.76
2018-08-06T21:08:32.945Z,17.62
2018-08-06T21:11:31.361Z,17.63
2018-08-06T21:14:29.243Z,17.84
2018-08-06T21:17:27.332Z,17.88
2018-08-06T21:20:27.499Z,17.80
2018-08-06T21:23:27.103Z,17.83
2018-08-06T21:26:26.302Z,17.75
2018-08-06T21:29:24.687Z,17.59
2018-08-06T21:32:23.240Z,17.47
2018-08-06T21:35:23.481Z,17.35
2018-08-06T21:38:21.984Z,17.32
2018-08-06T21:41:20.286Z,17.28
2018-08-06T21:44:18.768Z,17.27
2018-08-06T21:47:17.961Z,17.30
2018-08-06T21:50:16.759Z,17.31
2018-08-06T21:53:14.847Z,17.07
2018-08-06T21:56:14.923Z,17.00
2018-08-06T21:59:13.247Z,16.92
2018-08-06T22:02:11.746Z,16.90
2018-08-06T22:05:09.770Z,16.81
2018-08-06T22:08:08.890Z,16.76
2018-08-06T22:11:07.029Z,16.75
2018-08-06T22:14:06.382Z,16.76
2018-08-06T22:17:05.067Z,16.71
2018-08-06T22:20:03.612Z,16.60
2018-08-06T22:23:03.035Z,16.54
2018-08-06T22:26:01.384Z,16.49
2018-08-06T22:28:59.150Z,16.48
2018-08-06T22:31:58.625Z,16.58
2018-08-06T22:34:57.596Z,16.63
2018-08-06T22:37:55.783Z,16.58
2018-08-06T22:40:54.749Z,16.55
2018-08-06T22:43:53.206Z,16.51
2018-08-06T22:46:51.405Z,16.57
2018-08-06T22:49:49.838Z,16.63
2018-08-06T22:52:48.755Z,16.55
2018-08-06T22:55:52.975Z,16.33
2018-08-06T22:58:51.513Z,16.19
2018-08-06T23:01:50.481Z,16.10
2018-08-06T23:04:48.462Z,16.10
2018-08-06T23:07:47.158Z,16.12
2018-08-06T23:10:45.295Z,15.99
2018-08-06T23:13:43.984Z,15.94
2018-08-06T23:16:42.227Z,15.91
2018-08-06T23:19:42.016Z,15.88
2018-08-06T23:22:39.983Z,15.87
2018-08-06T23:25:37.881Z,15.82
2018-08-06T23:28:36.130Z,15.80
2018-08-06T23:31:34.663Z,15.83
2018-08-06T23:34:32.503Z,15.69
2018-08-06T23:37:31.811Z,15.58
2018-08-06T23:40:29.779Z,15.60
2018-08-06T23:43:29.254Z,15.55
2018-08-06T23:46:27.131Z,15.52
2018-08-06T23:49:25.477Z,15.33
2018-08-06T23:52:23.868Z,15.20
2018-08-06T23:55:22.976Z,15.01
2018-08-06T23:58:21.000Z,14.90
